sensor_id;sensor_type;location;lat;lon;timestamp;temperature;humidity
8463;DHT22;4268;52.506;13.462;2023-07-09T00:02:26;21.20;70.70
8463;DHT22;4268;52.506;13.462;2023-07-09T00:04:52;21.20;70.70
8463;DHT22;4268;52.506;13.462;2023-07-09T00:07:29;21.20;70.70
8463;DHT22;4268;52.506;13.462;2023-07-09T00:09:55;21.30;70.80
8463;DHT22;4268;52.506;13.462;2023-07-09T00:12:21;21.10;70.70
8463;DHT22;4268;52.506;13.462;2023-07-09T00:14:47;21.10;71.10
8463;DHT22;4268;52.506;13.462;2023-07-09T00:17:25;21.10;71.30
8463;DHT22;4268;52.506;13.462;2023-07-09T00:19:51;21.10;71.30
8463;DHT22;4268;52.506;13.462;2023-07-09T00:22:18;21.10;71.50
8463;DHT22;4268;52.506;13.462;2023-07-09T00:24:46;21.00;71.50
8463;DHT22;4268;52.506;13.462;2023-07-09T00:27:13;21.00;71.70
8463;DHT22;4268;52.506;13.462;2023-07-09T00:29:40;21.00;71.90
8463;DHT22;4268;52.506;13.462;2023-07-09T00:32:17;21.00;72.00
8463;DHT22;4268;52.506;13.462;2023-07-09T00:34:46;21.00;72.20
8463;DHT22;4268;52.506;13.462;2023-07-09T00:37:14;21.00;72.30
8463;DHT22;4268;52.506;13.462;2023-07-09T00:39:40;21.00;72.50
8463;DHT22;4268;52.506;13.462;2023-07-09T00:42:12;21.00;72.50
8463;DHT22;4268;52.506;13.462;2023-07-09T00:44:46;20.90;72.50
8463;DHT22;4268;52.506;13.462;2023-07-09T00:47:18;20.90;72.70
8463;DHT22;4268;52.506;13.462;2023-07-09T00:49:47;20.90;72.90
8463;DHT22;4268;52.506;13.462;2023-07-09T00:52:26;20.80;73.10
8463;DHT22;4268;52.506;13.462;2023-07-09T00:54:59;20.80;73.20
8463;DHT22;4268;52.506;13.462;2023-07-09T00:57:29;20.80;73.50
8463;DHT22;4268;52.506;13.462;2023-07-09T01:00:00;20.90;73.90
8463;DHT22;4268;52.506;13.462;2023-07-09T01:02:33;20.70;73.80
8463;DHT22;4268;52.506;13.462;2023-07-09T01:05:01;20.70;74.10
8463;DHT22;4268;52.506;13.462;2023-07-09T01:07:30;20.70;74.40
8463;DHT22;4268;52.506;13.462;2023-07-09T01:09:56;20.60;74.50
8463;DHT22;4268;52.506;13.462;2023-07-09T01:12:22;20.50;74.60
8463;DHT22;4268;52.506;13.462;2023-07-09T01:14:49;20.60;74.90
8463;DHT22;4268;52.506;13.462;2023-07-09T01:17:17;20.60;75.00
8463;DHT22;4268;52.506;13.462;2023-07-09T01:19:44;20.50;75.10
8463;DHT22;4268;52.506;13.462;2023-07-09T01:22:15;20.50;75.20
8463;DHT22;4268;52.506;13.462;2023-07-09T01:27:14;20.50;75.40
8463;DHT22;4268;52.506;13.462;2023-07-09T01:29:41;20.40;75.40
8463;DHT22;4268;52.506;13.462;2023-07-09T01:32:08;20.40;75.60
8463;DHT22;4268;52.506;13.462;2023-07-09T01:34:35;20.40;75.80
8463;DHT22;4268;52.506;13.462;2023-07-09T01:37:01;20.40;76.00
8463;DHT22;4268;52.506;13.462;2023-07-09T01:39:27;20.30;76.00
8463;DHT22;4268;52.506;13.462;2023-07-09T01:41:54;20.30;76.20
8463;DHT22;4268;52.506;13.462;2023-07-09T01:44:19;20.30;76.30
8463;DHT22;4268;52.506;13.462;2023-07-09T01:46:45;20.30;76.40
8463;DHT22;4268;52.506;13.462;2023-07-09T01:49:11;20.30;77.30
8463;DHT22;4268;52.506;13.462;2023-07-09T01:51:37;20.20;76.70
8463;DHT22;4268;52.506;13.462;2023-07-09T01:54:04;20.20;76.90
8463;DHT22;4268;52.506;13.462;2023-07-09T01:56:29;20.10;77.10
8463;DHT22;4268;52.506;13.462;2023-07-09T01:58:55;20.10;77.30
8463;DHT22;4268;52.506;13.462;2023-07-09T02:01:27;20.10;77.60
8463;DHT22;4268;52.506;13.462;2023-07-09T02:03:53;20.10;77.70
8463;DHT22;4268;52.506;13.462;2023-07-09T02:06:18;20.00;77.90
8463;DHT22;4268;52.506;13.462;2023-07-09T02:08:45;20.00;78.20
8463;DHT22;4268;52.506;13.462;2023-07-09T02:11:11;20.00;78.40
8463;DHT22;4268;52.506;13.462;2023-07-09T02:13:36;19.90;78.50
8463;DHT22;4268;52.506;13.462;2023-07-09T02:16:02;19.90;78.80
8463;DHT22;4268;52.506;13.462;2023-07-09T02:18:29;19.90;79.00
8463;DHT22;4268;52.506;13.462;2023-07-09T02:20:54;19.80;79.10
8463;DHT22;4268;52.506;13.462;2023-07-09T02:23:20;19.80;79.20
8463;DHT22;4268;52.506;13.462;2023-07-09T02:25:45;19.80;79.50
8463;DHT22;4268;52.506;13.462;2023-07-09T02:28:11;19.80;79.90
8463;DHT22;4268;52.506;13.462;2023-07-09T02:30:36;19.80;80.00
8463;DHT22;4268;52.506;13.462;2023-07-09T02:33:02;19.70;79.90
8463;DHT22;4268;52.506;13.462;2023-07-09T02:35:27;19.70;79.90
8463;DHT22;4268;52.506;13.462;2023-07-09T02:37:53;19.70;79.90
8463;DHT22;4268;52.506;13.462;2023-07-09T02:40:18;19.60;80.00
8463;DHT22;4268;52.506;13.462;2023-07-09T02:42:44;19.60;80.30
8463;DHT22;4268;52.506;13.462;2023-07-09T02:45:10;19.60;80.50
8463;DHT22;4268;52.506;13.462;2023-07-09T02:47:36;19.60;80.70
8463;DHT22;4268;52.506;13.462;2023-07-09T02:50:02;19.60;80.90
8463;DHT22;4268;52.506;13.462;2023-07-09T02:52:28;19.50;81.00
8463;DHT22;4268;52.506;13.462;2023-07-09T02:54:53;19.50;81.30
8463;DHT22;4268;52.506;13.462;2023-07-09T02:57:19;19.50;81.30
8463;DHT22;4268;52.506;13.462;2023-07-09T02:59:44;19.50;81.60
8463;DHT22;4268;52.506;13.462;2023-07-09T03:02:10;19.50;81.70
8463;DHT22;4268;52.506;13.462;2023-07-09T03:04:35;19.50;81.60
8463;DHT22;4268;52.506;13.462;2023-07-09T03:07:01;19.50;81.50
8463;DHT22;4268;52.506;13.462;2023-07-09T03:09:27;19.60;81.60
8463;DHT22;4268;52.506;13.462;2023-07-09T03:11:53;19.50;81.50
8463;DHT22;4268;52.506;13.462;2023-07-09T03:14:18;19.60;81.60
8463;DHT22;4268;52.506;13.462;2023-07-09T03:16:44;19.60;81.60
8463;DHT22;4268;52.506;13.462;2023-07-09T03:19:09;19.60;81.60
8463;DHT22;4268;52.506;13.462;2023-07-09T03:21:35;19.60;81.50
8463;DHT22;4268;52.506;13.462;2023-07-09T03:24:00;19.60;81.60
8463;DHT22;4268;52.506;13.462;2023-07-09T03:26:26;19.70;81.70
8463;DHT22;4268;52.506;13.462;2023-07-09T03:28:52;19.60;81.60
8463;DHT22;4268;52.506;13.462;2023-07-09T03:31:18;19.70;81.70
8463;DHT22;4268;52.506;13.462;2023-07-09T03:33:46;19.70;81.70
8463;DHT22;4268;52.506;13.462;2023-07-09T03:36:12;19.80;81.70
8463;DHT22;4268;52.506;13.462;2023-07-09T03:38:38;19.80;81.70
8463;DHT22;4268;52.506;13.462;2023-07-09T03:41:03;19.80;81.50
8463;DHT22;4268;52.506;13.462;2023-07-09T03:43:29;19.80;81.20
8463;DHT22;4268;52.506;13.462;2023-07-09T03:45:54;19.90;81.30
8463;DHT22;4268;52.506;13.462;2023-07-09T03:48:20;19.90;81.20
8463;DHT22;4268;52.506;13.462;2023-07-09T03:50:47;19.90;81.10
8463;DHT22;4268;52.506;13.462;2023-07-09T03:53:14;19.90;81.10
8463;DHT22;4268;52.506;13.462;2023-07-09T03:55:39;19.90;81.10
8463;DHT22;4268;52.506;13.462;2023-07-09T03:58:05;19.90;80.90
8463;DHT22;4268;52.506;13.462;2023-07-09T04:00:32;19.90;81.00
8463;DHT22;4268;52.506;13.462;2023-07-09T04:02:57;20.00;81.00
8463;DHT22;4268;52.506;13.462;2023-07-09T04:05:24;20.00;80.90
8463;DHT22;4268;52.506;13.462;2023-07-09T04:07:49;20.00;80.80
8463;DHT22;4268;52.506;13.462;2023-07-09T04:10:15;20.00;80.80
8463;DHT22;4268;52.506;13.462;2023-07-09T04:12:41;20.10;80.90
8463;DHT22;4268;52.506;13.462;2023-07-09T04:15:07;20.10;80.70
8463;DHT22;4268;52.506;13.462;2023-07-09T04:17:32;20.10;80.50
8463;DHT22;4268;52.506;13.462;2023-07-09T04:19:58;20.10;80.50
8463;DHT22;4268;52.506;13.462;2023-07-09T04:22:24;20.20;80.50
8463;DHT22;4268;52.506;13.462;2023-07-09T04:24:49;20.20;80.40
8463;DHT22;4268;52.506;13.462;2023-07-09T04:27:16;20.20;80.40
8463;DHT22;4268;52.506;13.462;2023-07-09T04:29:41;20.30;80.50
8463;DHT22;4268;52.506;13.462;2023-07-09T04:32:11;20.30;80.50
8463;DHT22;4268;52.506;13.462;2023-07-09T04:34:37;20.30;80.50
8463;DHT22;4268;52.506;13.462;2023-07-09T04:37:06;20.40;80.60
8463;DHT22;4268;52.506;13.462;2023-07-09T04:39:31;20.40;80.60
8463;DHT22;4268;52.506;13.462;2023-07-09T04:41:57;20.50;80.90
8463;DHT22;4268;52.506;13.462;2023-07-09T04:44:22;20.40;80.90
8463;DHT22;4268;52.506;13.462;2023-07-09T04:46:48;20.50;80.20
8463;DHT22;4268;52.506;13.462;2023-07-09T04:49:14;20.50;79.50
8463;DHT22;4268;52.506;13.462;2023-07-09T04:51:40;20.50;79.70
8463;DHT22;4268;52.506;13.462;2023-07-09T04:54:05;20.60;80.00
8463;DHT22;4268;52.506;13.462;2023-07-09T04:56:31;20.60;79.30
8463;DHT22;4268;52.506;13.462;2023-07-09T04:58:57;20.70;79.50
8463;DHT22;4268;52.506;13.462;2023-07-09T05:01:22;20.70;79.70
8463;DHT22;4268;52.506;13.462;2023-07-09T05:03:48;20.80;79.70
8463;DHT22;4268;52.506;13.462;2023-07-09T05:06:13;20.80;79.20
8463;DHT22;4268;52.506;13.462;2023-07-09T05:08:39;20.90;78.90
8463;DHT22;4268;52.506;13.462;2023-07-09T05:11:04;21.00;79.30
8463;DHT22;4268;52.506;13.462;2023-07-09T05:13:30;21.00;78.60
8463;DHT22;4268;52.506;13.462;2023-07-09T05:15:55;21.10;78.20
8463;DHT22;4268;52.506;13.462;2023-07-09T05:18:21;21.20;77.30
8463;DHT22;4268;52.506;13.462;2023-07-09T05:20:47;21.20;77.10
8463;DHT22;4268;52.506;13.462;2023-07-09T05:23:13;21.30;77.60
8463;DHT22;4268;52.506;13.462;2023-07-09T05:25:38;21.40;77.10
8463;DHT22;4268;52.506;13.462;2023-07-09T05:28:05;21.40;76.70
8463;DHT22;4268;52.506;13.462;2023-07-09T05:30:31;21.50;76.60
8463;DHT22;4268;52.506;13.462;2023-07-09T05:32:56;21.60;75.80
8463;DHT22;4268;52.506;13.462;2023-07-09T05:35:24;21.70;75.00
8463;DHT22;4268;52.506;13.462;2023-07-09T05:37:51;21.80;75.10
8463;DHT22;4268;52.506;13.462;2023-07-09T05:40:16;21.80;75.80
8463;DHT22;4268;52.506;13.462;2023-07-09T05:42:42;21.90;75.60
8463;DHT22;4268;52.506;13.462;2023-07-09T05:45:08;21.90;75.40
8463;DHT22;4268;52.506;13.462;2023-07-09T05:50:10;22.10;75.10
8463;DHT22;4268;52.506;13.462;2023-07-09T05:52:42;22.10;75.00
8463;DHT22;4268;52.506;13.462;2023-07-09T05:55:07;22.20;75.50
8463;DHT22;4268;52.506;13.462;2023-07-09T05:57:33;22.30;75.80
8463;DHT22;4268;52.506;13.462;2023-07-09T05:59:58;22.30;76.00
8463;DHT22;4268;52.506;13.462;2023-07-09T06:02:24;22.50;75.00
8463;DHT22;4268;52.506;13.462;2023-07-09T06:04:49;22.50;75.00
8463;DHT22;4268;52.506;13.462;2023-07-09T06:07:15;22.80;75.70
8463;DHT22;4268;52.506;13.462;2023-07-09T06:09:41;23.50;74.00
8463;DHT22;4268;52.506;13.462;2023-07-09T06:12:07;24.30;72.00
8463;DHT22;4268;52.506;13.462;2023-07-09T06:14:33;25.20;70.30
8463;DHT22;4268;52.506;13.462;2023-07-09T06:17:00;26.80;66.90
8463;DHT22;4268;52.506;13.462;2023-07-09T06:19:25;28.30;63.70
8463;DHT22;4268;52.506;13.462;2023-07-09T06:21:51;29.90;59.40
8463;DHT22;4268;52.506;13.462;2023-07-09T06:24:16;30.90;57.30
8463;DHT22;4268;52.506;13.462;2023-07-09T06:26:42;31.70;56.70
8463;DHT22;4268;52.506;13.462;2023-07-09T06:29:08;32.30;55.00
8463;DHT22;4268;52.506;13.462;2023-07-09T06:31:33;33.00;53.60
8463;DHT22;4268;52.506;13.462;2023-07-09T06:33:59;33.40;52.80
8463;DHT22;4268;52.506;13.462;2023-07-09T06:36:24;33.80;51.00
8463;DHT22;4268;52.506;13.462;2023-07-09T06:38:50;34.40;50.80
8463;DHT22;4268;52.506;13.462;2023-07-09T06:41:16;35.00;49.90
8463;DHT22;4268;52.506;13.462;2023-07-09T06:43:42;35.30;49.60
8463;DHT22;4268;52.506;13.462;2023-07-09T06:46:11;35.30;48.90
8463;DHT22;4268;52.506;13.462;2023-07-09T06:48:37;35.60;48.50
8463;DHT22;4268;52.506;13.462;2023-07-09T06:51:02;35.50;48.20
8463;DHT22;4268;52.506;13.462;2023-07-09T06:53:28;35.80;48.00
8463;DHT22;4268;52.506;13.462;2023-07-09T06:55:54;36.20;47.00
8463;DHT22;4268;52.506;13.462;2023-07-09T06:58:22;35.90;46.30
8463;DHT22;4268;52.506;13.462;2023-07-09T07:00:49;36.70;46.60
8463;DHT22;4268;52.506;13.462;2023-07-09T07:03:15;37.00;46.40
8463;DHT22;4268;52.506;13.462;2023-07-09T07:05:45;37.00;46.50
8463;DHT22;4268;52.506;13.462;2023-07-09T07:08:13;37.00;46.30
8463;DHT22;4268;52.506;13.462;2023-07-09T07:10:38;36.70;46.70
8463;DHT22;4268;52.506;13.462;2023-07-09T07:13:04;36.10;47.40
8463;DHT22;4268;52.506;13.462;2023-07-09T07:15:29;35.30;48.00
8463;DHT22;4268;52.506;13.462;2023-07-09T07:17:55;34.40;49.50
8463;DHT22;4268;52.506;13.462;2023-07-09T07:20:20;33.70;49.80
8463;DHT22;4268;52.506;13.462;2023-07-09T07:22:46;33.40;50.60
8463;DHT22;4268;52.506;13.462;2023-07-09T07:25:12;32.90;51.20
8463;DHT22;4268;52.506;13.462;2023-07-09T07:27:38;32.60;51.90
8463;DHT22;4268;52.506;13.462;2023-07-09T07:30:04;32.40;52.50
8463;DHT22;4268;52.506;13.462;2023-07-09T07:32:30;32.30;53.10
8463;DHT22;4268;52.506;13.462;2023-07-09T07:34:56;32.40;52.80
8463;DHT22;4268;52.506;13.462;2023-07-09T07:37:21;32.20;52.90
8463;DHT22;4268;52.506;13.462;2023-07-09T07:39:48;32.10;53.20
8463;DHT22;4268;52.506;13.462;2023-07-09T07:42:14;32.10;53.30
8463;DHT22;4268;52.506;13.462;2023-07-09T07:44:39;32.00;53.50
8463;DHT22;4268;52.506;13.462;2023-07-09T07:47:05;32.10;53.30
8463;DHT22;4268;52.506;13.462;2023-07-09T07:49:31;32.20;53.90
8463;DHT22;4268;52.506;13.462;2023-07-09T07:51:57;32.10;53.30
8463;DHT22;4268;52.506;13.462;2023-07-09T07:54:22;32.20;53.90
8463;DHT22;4268;52.506;13.462;2023-07-09T07:56:48;32.30;53.90
8463;DHT22;4268;52.506;13.462;2023-07-09T07:59:14;32.30;54.20
8463;DHT22;4268;52.506;13.462;2023-07-09T08:01:40;32.30;52.90
8463;DHT22;4268;52.506;13.462;2023-07-09T08:04:05;31.80;54.30
8463;DHT22;4268;52.506;13.462;2023-07-09T08:06:31;31.30;55.00
8463;DHT22;4268;52.506;13.462;2023-07-09T08:08:57;31.60;55.10
8463;DHT22;4268;52.506;13.462;2023-07-09T08:11:23;31.70;55.10
8463;DHT22;4268;52.506;13.462;2023-07-09T08:13:49;31.80;54.60
8463;DHT22;4268;52.506;13.462;2023-07-09T08:16:14;31.50;54.30
8463;DHT22;4268;52.506;13.462;2023-07-09T08:18:40;31.60;54.40
8463;DHT22;4268;52.506;13.462;2023-07-09T08:21:05;31.70;54.60
8463;DHT22;4268;52.506;13.462;2023-07-09T08:23:31;31.80;54.80
8463;DHT22;4268;52.506;13.462;2023-07-09T08:25:58;32.10;54.50
8463;DHT22;4268;52.506;13.462;2023-07-09T08:28:24;32.30;54.40
8463;DHT22;4268;52.506;13.462;2023-07-09T08:30:52;32.50;54.70
8463;DHT22;4268;52.506;13.462;2023-07-09T08:33:18;32.60;54.10
8463;DHT22;4268;52.506;13.462;2023-07-09T08:35:44;32.40;54.00
8463;DHT22;4268;52.506;13.462;2023-07-09T08:38:09;32.40;53.90
8463;DHT22;4268;52.506;13.462;2023-07-09T08:40:40;32.30;54.30
8463;DHT22;4268;52.506;13.462;2023-07-09T08:43:22;32.10;54.20
8463;DHT22;4268;52.506;13.462;2023-07-09T08:46:07;32.00;54.00
8463;DHT22;4268;52.506;13.462;2023-07-09T08:48:34;32.00;53.70
8463;DHT22;4268;52.506;13.462;2023-07-09T08:51:53;32.00;54.20
8463;DHT22;4268;52.506;13.462;2023-07-09T08:53:58;31.90;52.80
8463;DHT22;4268;52.506;13.462;2023-07-09T08:56:25;31.60;52.30
8463;DHT22;4268;52.506;13.462;2023-07-09T08:58:54;31.60;53.80
8463;DHT22;4268;52.506;13.462;2023-07-09T09:01:23;31.40;52.90
8463;DHT22;4268;52.506;13.462;2023-07-09T09:03:55;31.50;51.90
8463;DHT22;4268;52.506;13.462;2023-07-09T09:06:29;31.50;50.90
8463;DHT22;4268;52.506;13.462;2023-07-09T09:09:28;31.50;50.90
8463;DHT22;4268;52.506;13.462;2023-07-09T09:12:18;31.50;52.20
8463;DHT22;4268;52.506;13.462;2023-07-09T09:15:00;31.40;53.00
8463;DHT22;4268;52.506;13.462;2023-07-09T09:17:27;31.20;53.00
8463;DHT22;4268;52.506;13.462;2023-07-09T09:19:56;30.90;53.20
8463;DHT22;4268;52.506;13.462;2023-07-09T09:23:01;30.90;52.70
8463;DHT22;4268;52.506;13.462;2023-07-09T09:25:38;30.70;52.10
8463;DHT22;4268;52.506;13.462;2023-07-09T09:28:04;30.50;52.00
8463;DHT22;4268;52.506;13.462;2023-07-09T09:30:30;30.30;52.80
8463;DHT22;4268;52.506;13.462;2023-07-09T09:32:58;30.20;53.40
8463;DHT22;4268;52.506;13.462;2023-07-09T09:35:32;30.20;53.40
8463;DHT22;4268;52.506;13.462;2023-07-09T09:37:59;30.20;53.10
8463;DHT22;4268;52.506;13.462;2023-07-09T09:40:28;30.10;52.90
8463;DHT22;4268;52.506;13.462;2023-07-09T09:42:58;30.10;50.20
8463;DHT22;4268;52.506;13.462;2023-07-09T09:45:37;30.20;49.20
8463;DHT22;4268;52.506;13.462;2023-07-09T09:48:13;30.10;50.50
8463;DHT22;4268;52.506;13.462;2023-07-09T09:50:40;30.20;51.60
8463;DHT22;4268;52.506;13.462;2023-07-09T09:53:07;30.20;51.30
8463;DHT22;4268;52.506;13.462;2023-07-09T09:55:33;30.30;52.00
8463;DHT22;4268;52.506;13.462;2023-07-09T09:58:00;30.20;52.80
8463;DHT22;4268;52.506;13.462;2023-07-09T10:00:29;30.30;53.10
8463;DHT22;4268;52.506;13.462;2023-07-09T10:02:59;30.40;52.20
8463;DHT22;4268;52.506;13.462;2023-07-09T10:05:43;30.30;51.40
8463;DHT22;4268;52.506;13.462;2023-07-09T10:10:47;30.30;52.60
8463;DHT22;4268;52.506;13.462;2023-07-09T10:13:26;30.40;52.90
8463;DHT22;4268;52.506;13.462;2023-07-09T10:24:03;30.50;51.40
8463;DHT22;4268;52.506;13.462;2023-07-09T10:26:56;30.40;51.30
8463;DHT22;4268;52.506;13.462;2023-07-09T10:29:46;30.60;51.50
8463;DHT22;4268;52.506;13.462;2023-07-09T10:32:27;30.40;51.50
8463;DHT22;4268;52.506;13.462;2023-07-09T10:36:01;30.40;51.10
8463;DHT22;4268;52.506;13.462;2023-07-09T10:37:56;30.40;51.90
8463;DHT22;4268;52.506;13.462;2023-07-09T10:40:54;30.20;52.20
8463;DHT22;4268;52.506;13.462;2023-07-09T10:43:25;30.20;52.10
8463;DHT22;4268;52.506;13.462;2023-07-09T10:45:59;30.20;52.10
8463;DHT22;4268;52.506;13.462;2023-07-09T10:48:35;30.20;52.80
8463;DHT22;4268;52.506;13.462;2023-07-09T10:51:03;30.30;52.50
8463;DHT22;4268;52.506;13.462;2023-07-09T10:53:36;30.40;52.70
8463;DHT22;4268;52.506;13.462;2023-07-09T10:56:09;30.60;53.10
8463;DHT22;4268;52.506;13.462;2023-07-09T11:01:31;30.60;52.40
8463;DHT22;4268;52.506;13.462;2023-07-09T11:04:11;30.60;53.10
8463;DHT22;4268;52.506;13.462;2023-07-09T11:06:40;30.60;52.40
8463;DHT22;4268;52.506;13.462;2023-07-09T11:09:22;30.40;52.40
8463;DHT22;4268;52.506;13.462;2023-07-09T11:11:54;30.40;52.50
8463;DHT22;4268;52.506;13.462;2023-07-09T11:17:14;30.40;53.10
8463;DHT22;4268;52.506;13.462;2023-07-09T11:19:49;30.60;52.70
8463;DHT22;4268;52.506;13.462;2023-07-09T11:24:51;30.70;52.40
8463;DHT22;4268;52.506;13.462;2023-07-09T11:27:23;30.50;52.70
8463;DHT22;4268;52.506;13.462;2023-07-09T11:30:00;30.80;53.00
8463;DHT22;4268;52.506;13.462;2023-07-09T11:32:27;30.90;53.00
8463;DHT22;4268;52.506;13.462;2023-07-09T11:34:53;30.90;52.40
8463;DHT22;4268;52.506;13.462;2023-07-09T11:37:25;31.10;52.30
8463;DHT22;4268;52.506;13.462;2023-07-09T11:39:50;31.10;52.70
8463;DHT22;4268;52.506;13.462;2023-07-09T11:44:49;30.90;52.40
8463;DHT22;4268;52.506;13.462;2023-07-09T11:47:24;30.60;52.40
8463;DHT22;4268;52.506;13.462;2023-07-09T11:49:59;31.30;52.30
8463;DHT22;4268;52.506;13.462;2023-07-09T11:52:40;31.20;51.70
8463;DHT22;4268;52.506;13.462;2023-07-09T11:55:21;31.20;51.80
8463;DHT22;4268;52.506;13.462;2023-07-09T11:57:56;31.30;51.70
8463;DHT22;4268;52.506;13.462;2023-07-09T12:00:22;31.30;51.20
8463;DHT22;4268;52.506;13.462;2023-07-09T12:02:48;31.40;50.80
8463;DHT22;4268;52.506;13.462;2023-07-09T12:05:19;31.40;50.80
8463;DHT22;4268;52.506;13.462;2023-07-09T12:07:46;31.40;51.50
8463;DHT22;4268;52.506;13.462;2023-07-09T12:10:32;31.40;51.30
8463;DHT22;4268;52.506;13.462;2023-07-09T12:12:59;31.60;51.00
8463;DHT22;4268;52.506;13.462;2023-07-09T12:15:28;31.60;49.70
8463;DHT22;4268;52.506;13.462;2023-07-09T12:17:59;31.60;49.10
8463;DHT22;4268;52.506;13.462;2023-07-09T12:20:29;31.20;49.00
8463;DHT22;4268;52.506;13.462;2023-07-09T12:22:56;31.50;49.20
8463;DHT22;4268;52.506;13.462;2023-07-09T12:25:24;31.50;49.40
8463;DHT22;4268;52.506;13.462;2023-07-09T12:27:50;31.50;49.20
8463;DHT22;4268;52.506;13.462;2023-07-09T12:30:16;31.50;49.20
8463;DHT22;4268;52.506;13.462;2023-07-09T12:32:47;31.40;49.80
8463;DHT22;4268;52.506;13.462;2023-07-09T12:35:15;31.90;50.00
8463;DHT22;4268;52.506;13.462;2023-07-09T12:37:43;32.70;50.30
8463;DHT22;4268;52.506;13.462;2023-07-09T12:40:15;31.50;49.50
8463;DHT22;4268;52.506;13.462;2023-07-09T12:42:42;31.50;49.30
8463;DHT22;4268;52.506;13.462;2023-07-09T12:45:15;31.60;48.90
8463;DHT22;4268;52.506;13.462;2023-07-09T12:47:43;31.40;49.00
8463;DHT22;4268;52.506;13.462;2023-07-09T12:50:31;31.50;49.20
8463;DHT22;4268;52.506;13.462;2023-07-09T12:53:11;31.40;49.00
8463;DHT22;4268;52.506;13.462;2023-07-09T12:55:40;31.50;49.60
8463;DHT22;4268;52.506;13.462;2023-07-09T12:58:10;31.60;49.00
8463;DHT22;4268;52.506;13.462;2023-07-09T13:00:37;31.50;49.30
8463;DHT22;4268;52.506;13.462;2023-07-09T13:03:03;31.50;49.20
8463;DHT22;4268;52.506;13.462;2023-07-09T13:05:29;31.50;48.80
8463;DHT22;4268;52.506;13.462;2023-07-09T13:08:03;31.50;48.70
8463;DHT22;4268;52.506;13.462;2023-07-09T13:10:31;31.40;49.00
8463;DHT22;4268;52.506;13.462;2023-07-09T13:13:02;31.40;49.00
8463;DHT22;4268;52.506;13.462;2023-07-09T13:15:42;31.50;49.80
8463;DHT22;4268;52.506;13.462;2023-07-09T13:18:10;31.50;50.10
8463;DHT22;4268;52.506;13.462;2023-07-09T13:20:42;31.40;49.50
8463;DHT22;4268;52.506;13.462;2023-07-09T13:23:14;31.60;50.20
8463;DHT22;4268;52.506;13.462;2023-07-09T13:25:40;30.90;50.10
8463;DHT22;4268;52.506;13.462;2023-07-09T13:28:30;31.60;49.50
8463;DHT22;4268;52.506;13.462;2023-07-09T13:30:58;32.40;50.70
8463;DHT22;4268;52.506;13.462;2023-07-09T13:33:24;31.70;49.20
8463;DHT22;4268;52.506;13.462;2023-07-09T13:35:50;32.80;50.50
8463;DHT22;4268;52.506;13.462;2023-07-09T13:38:20;31.30;49.30
8463;DHT22;4268;52.506;13.462;2023-07-09T13:40:48;31.50;49.00
8463;DHT22;4268;52.506;13.462;2023-07-09T13:43:17;31.40;49.60
8463;DHT22;4268;52.506;13.462;2023-07-09T13:45:47;31.70;49.50
8463;DHT22;4268;52.506;13.462;2023-07-09T13:48:20;31.50;49.30
8463;DHT22;4268;52.506;13.462;2023-07-09T13:50:49;31.50;49.40
8463;DHT22;4268;52.506;13.462;2023-07-09T13:53:23;31.50;49.70
8463;DHT22;4268;52.506;13.462;2023-07-09T13:55:50;31.60;49.20
8463;DHT22;4268;52.506;13.462;2023-07-09T13:58:17;31.60;49.30
8463;DHT22;4268;52.506;13.462;2023-07-09T14:00:45;31.70;49.50
8463;DHT22;4268;52.506;13.462;2023-07-09T14:03:25;33.30;50.20
8463;DHT22;4268;52.506;13.462;2023-07-09T14:05:52;32.80;50.20
8463;DHT22;4268;52.506;13.462;2023-07-09T14:08:20;31.80;49.10
8463;DHT22;4268;52.506;13.462;2023-07-09T14:10:49;33.50;49.60
8463;DHT22;4268;52.506;13.462;2023-07-09T14:13:17;31.70;48.60
8463;DHT22;4268;52.506;13.462;2023-07-09T14:15:44;31.70;48.50
8463;DHT22;4268;52.506;13.462;2023-07-09T14:18:15;31.60;48.40
8463;DHT22;4268;52.506;13.462;2023-07-09T14:20:42;31.50;48.60
8463;DHT22;4268;52.506;13.462;2023-07-09T14:23:10;31.60;48.90
8463;DHT22;4268;52.506;13.462;2023-07-09T14:25:36;31.60;48.70
8463;DHT22;4268;52.506;13.462;2023-07-09T14:28:08;31.60;49.10
8463;DHT22;4268;52.506;13.462;2023-07-09T14:30:34;31.60;48.30
8463;DHT22;4268;52.506;13.462;2023-07-09T14:33:00;31.60;48.50
8463;DHT22;4268;52.506;13.462;2023-07-09T14:35:26;31.60;48.60
8463;DHT22;4268;52.506;13.462;2023-07-09T14:37:53;31.50;48.20
8463;DHT22;4268;52.506;13.462;2023-07-09T14:40:20;31.40;48.70
8463;DHT22;4268;52.506;13.462;2023-07-09T14:42:47;31.50;48.50
8463;DHT22;4268;52.506;13.462;2023-07-09T14:45:30;31.50;48.80
8463;DHT22;4268;52.506;13.462;2023-07-09T14:47:57;31.50;48.30
8463;DHT22;4268;52.506;13.462;2023-07-09T14:50:23;31.50;48.10
8463;DHT22;4268;52.506;13.462;2023-07-09T14:52:49;31.40;48.40
8463;DHT22;4268;52.506;13.462;2023-07-09T14:55:18;31.40;48.80
8463;DHT22;4268;52.506;13.462;2023-07-09T14:57:45;31.50;48.70
8463;DHT22;4268;52.506;13.462;2023-07-09T15:00:20;31.50;48.60
8463;DHT22;4268;52.506;13.462;2023-07-09T15:02:48;31.60;48.20
8463;DHT22;4268;52.506;13.462;2023-07-09T15:05:23;31.60;48.20
8463;DHT22;4268;52.506;13.462;2023-07-09T15:07:49;31.60;48.20
8463;DHT22;4268;52.506;13.462;2023-07-09T15:10:25;31.50;48.80
8463;DHT22;4268;52.506;13.462;2023-07-09T15:12:52;31.50;48.10
8463;DHT22;4268;52.506;13.462;2023-07-09T15:15:28;31.50;48.20
8463;DHT22;4268;52.506;13.462;2023-07-09T15:17:55;31.50;48.10
8463;DHT22;4268;52.506;13.462;2023-07-09T15:20:24;31.50;48.10
8463;DHT22;4268;52.506;13.462;2023-07-09T15:22:51;31.50;48.10
8463;DHT22;4268;52.506;13.462;2023-07-09T15:25:20;31.40;48.40
8463;DHT22;4268;52.506;13.462;2023-07-09T15:27:47;31.40;48.90
8463;DHT22;4268;52.506;13.462;2023-07-09T15:30:21;31.40;49.10
8463;DHT22;4268;52.506;13.462;2023-07-09T15:32:48;31.40;49.40
8463;DHT22;4268;52.506;13.462;2023-07-09T15:35:16;31.40;49.00
8463;DHT22;4268;52.506;13.462;2023-07-09T15:37:42;31.40;49.20
8463;DHT22;4268;52.506;13.462;2023-07-09T15:40:27;31.40;48.60
8463;DHT22;4268;52.506;13.462;2023-07-09T15:42:57;31.40;49.00
8463;DHT22;4268;52.506;13.462;2023-07-09T15:45:23;31.40;48.30
8463;DHT22;4268;52.506;13.462;2023-07-09T15:47:50;31.40;48.60
8463;DHT22;4268;52.506;13.462;2023-07-09T15:50:25;31.40;49.10
8463;DHT22;4268;52.506;13.462;2023-07-09T15:52:51;31.30;49.30
8463;DHT22;4268;52.506;13.462;2023-07-09T15:55:25;31.30;48.90
8463;DHT22;4268;52.506;13.462;2023-07-09T15:57:53;31.20;48.90
8463;DHT22;4268;52.506;13.462;2023-07-09T16:00:24;31.40;48.90
8463;DHT22;4268;52.506;13.462;2023-07-09T16:02:51;31.30;48.70
8463;DHT22;4268;52.506;13.462;2023-07-09T16:05:23;31.20;49.00
8463;DHT22;4268;52.506;13.462;2023-07-09T16:07:50;31.20;48.60
8463;DHT22;4268;52.506;13.462;2023-07-09T16:10:16;31.20;49.00
8463;DHT22;4268;52.506;13.462;2023-07-09T16:12:42;31.10;49.00
8463;DHT22;4268;52.506;13.462;2023-07-09T16:15:12;31.20;48.80
8463;DHT22;4268;52.506;13.462;2023-07-09T16:17:40;31.20;47.90
8463;DHT22;4268;52.506;13.462;2023-07-09T16:20:08;31.20;48.40
8463;DHT22;4268;52.506;13.462;2023-07-09T16:22:34;31.10;48.30